METAR AND TAF INFORMATION
METAR FOR LFRK
ADDS - METARS form results

(0211 UTC 13 September 2022)
Data provider http://aviationweather.gov/metar/data/
 
METAR text: LFRK 130200Z AUTO 07003KT 9999 //////TCU 21/15 Q1008
Conditions at: LFRK (CAEN/CARPIQUET(A, FR) observed 0200 UTC 13 September 2022
Temperature: 21.0°C (70°F)
Dewpoint: 15.0°C (59°F) [RH = 69%]
Pressure (altimeter): 29.76 inches Hg (1008.0 mb)
Winds: from the ENE (70 degrees) at 3 MPH (3 knots; 1.5 m/s)
Visibility: 6 or more miles (10+ km)
Ceiling: unknown
Clouds: missing
Weather: no significant weather observed at this time

METAR text: LFRK 130130Z AUTO 11002KT CAVOK 21/15 Q1008
Conditions at: LFRK (CAEN/CARPIQUET(A, FR) observed 0130 UTC 13 September 2022
Temperature: 21.0°C (70°F)
Dewpoint: 15.0°C (59°F) [RH = 69%]
Pressure (altimeter): 29.76 inches Hg (1008.0 mb)
Winds: from the ESE (110 degrees) at 2 MPH (2 knots; 1.0 m/s)
Visibility: 6 or more miles (10+ km)
Ceiling: ceiling and visibility are OK
Clouds: unknown
Weather: no significant weather observed at this time

 AIRPORT MAP

 RUNWAY INFORMATION
Runway 06 Runway length 3871 ft Runway width 98 ft
Runway elevation 256 ft Runway displaced threshold 0 ft Runway heading 52
Runway 24 Runway length 3871 ft Runway width 98 ft
Runway elevation 214 ft Runway displaced threshold 0 ft Runway heading 232
Runway 13 Runway length 6233 ft Runway width 148 ft
Runway elevation 232 ft Runway displaced threshold 984 ft Runway heading 125
Runway 31 Runway length 6233 ft Runway width 148 ft
Runway elevation 233 ft Runway displaced threshold 0 ft Runway heading 305

 AIRPORT FREQUENCIES
Type APP Name DEAUVILLE Frequency 120.35 MHZ
Type TWR Name CAEN TWR Frequency 124.425 MHZ

 AIRPORT NEAR NAVIGATION AIDS
Type VOR Name Caen Frequency 115400 KHZ
Type NDB Name Caen Frequency 404 KHZ



Powered by Virtual Airlines Manager [v2.6.2]